MDT,Max TemperatureF,Mean TemperatureF,Min TemperatureF,Max Dew PointF,MeanDew PointF,Min DewpointF,Max Humidity, Mean Humidity, Min Humidity, Max Sea Level PressureIn, Mean Sea Level PressureIn, Min Sea Level PressureIn, Max VisibilityMiles, Mean VisibilityMiles, Min VisibilityMiles, Max Wind SpeedMPH, Mean Wind SpeedMPH, Max Gust SpeedMPH,PrecipitationIn, CloudCover, Events, WindDirDegrees
2013-8-1,93,74,54,46,42,36,57,36,14,30.02,29.84,29.65,10,10,9,46,13,58,0.00,0,,241
2013-8-2,89,75,60,49,34,19,64,36,8,30.02,29.81,29.66,10,10,7,45,8,66,T,0,,252
2013-8-3,93,76,58,51,36,20,58,33,7,29.97,29.88,29.78,10,10,9,18,7,24,0.00,0,,298
2013-8-4,93,74,55,50,40,31,55,33,11,29.97,29.88,29.78,10,10,9,13,6,21,0.00,0,Rain,328
2013-8-5,93,76,59,55,40,22,68,38,8,30.02,29.85,29.75,10,9,8,30,7,39,0.00,0,,265
2013-8-6,92,76,59,42,36,25,43,27,10,29.94,29.84,29.75,10,10,9,18,6,22,0.00,0,,323
2013-8-7,91,73,54,46,38,29,55,33,11,30.00,29.86,29.73,10,9,6,26,6,32,0.00,0,,296
2013-8-8,84,72,59,47,41,29,52,34,15,30.10,29.92,29.85,10,9,8,28,6,37,0.00,1,,271
2013-8-9,76,66,56,51,44,40,55,44,33,30.04,30.01,29.96,10,10,6,20,6,24,0.01,3,Rain,279
2013-8-10,85,69,53,46,41,32,66,41,16,30.08,30.01,29.91,10,10,10,24,6,32,0.00,1,,306
2013-8-11,87,71,55,43,36,29,47,31,15,30.17,30.01,29.94,10,10,9,28,6,39,T,1,Rain,232
2013-8-12,86,70,53,44,37,32,55,35,14,30.16,30.01,29.93,10,10,7,28,8,32,0.00,1,,232
2013-8-13,82,68,53,44,37,35,47,34,21,30.09,30.05,29.99,10,9,8,26,6,33,0.00,0,,263
2013-8-14,87,68,49,41,34,29,59,37,14,30.22,30.02,29.91,10,10,8,24,5,39,T,0,,175
2013-8-15,91,72,53,42,32,25,44,27,9,30.05,29.96,29.89,10,9,6,15,5,17,0.00,0,,262
2013-8-16,94,75,55,37,28,16,35,22,8,30.02,29.93,29.85,9,7,6,16,6,21,0.00,0,,255
2013-8-17,96,79,62,36,25,18,28,18,7,29.96,29.87,29.79,10,10,8,14,5,20,0.00,0,,83
2013-8-18,94,78,61,40,34,31,36,24,12,29.93,29.86,29.81,10,10,10,18,5,23,0.00,0,,224
2013-8-19,96,76,56,47,34,26,44,27,9,29.96,29.87,29.78,10,10,7,21,7,26,0.00,0,,285
2013-8-20,90,78,65,48,39,32,35,26,17,29.94,29.84,29.80,10,10,9,20,8,23,T,2,Rain,218
2013-8-21,84,75,66,51,43,38,48,34,20,30.08,29.93,29.82,10,10,7,18,8,23,T,3,Rain,242
2013-8-22,89,73,56,48,46,41,67,45,23,30.06,29.97,29.87,10,10,8,24,6,32,T,1,Rain,257
2013-8-23,91,74,57,48,45,40,67,43,19,29.94,29.82,29.72,10,10,9,33,6,43,T,2,,163
2013-8-24,88,75,62,49,42,34,60,39,17,29.88,29.82,29.76,10,10,10,14,4,21,T,3,,218
2013-8-25,87,73,59,45,41,37,52,35,17,30.08,29.91,29.86,10,10,10,33,10,43,0.00,1,,216
2013-8-26,84,72,60,50,44,40,52,38,23,29.98,29.92,29.86,10,10,10,20,5,25,0.00,3,,301
2013-8-27,87,73,59,51,46,41,64,45,25,30.00,29.93,29.85,10,10,9,17,6,23,0.00,1,,313
2013-8-28,92,75,57,49,43,35,64,41,17,29.97,29.91,29.85,10,10,10,18,7,24,0.00,0,,229
2013-8-29,90,74,58,48,41,37,46,32,17,30.16,30.00,29.93,10,10,10,25,5,32,T,1,Thunderstorm,360
2013-8-30,90,72,54,47,42,38,57,37,17,30.07,29.98,29.88,10,10,10,26,5,32,T,0,,271
2013-8-31,89,74,58,40,38,33,46,31,15,30.00,29.93,29.84,10,9,7,15,6,18,0.00,0,,326